Time;durP1;ratioP1;P1;durP2;ratioP2;P2;SDS_P1;SDS_P2;PMS_P1;PMS_P2;Temp;Humidity;BMP_temperature;BMP_pressure;BME280_temperature;BME280_humidity;BME280_pressure;Samples;Min_cycle;Max_cycle;Signal;HPM_P1;HPM_P2
2022/03/04 00:01:46;;;;;;;;;;;0.30;92.50;;;;;;5037032;28;20046;-84
2022/03/04 00:04:13;;;;;;;;;;;0.30;92.60;;;;;;5047541;28;19916;-84
2022/03/04 00:06:38;;;;;;;;;;;0.30;93.10;;;;;;5055373;28;20275;-84
2022/03/04 00:09:04;;;;;;;;;;;0.20;93.30;;;;;;5033128;28;19917;-84
2022/03/04 00:11:29;;;;;;;;;;;0.20;93.20;;;;;;5035320;28;19917;-84
2022/03/04 00:13:55;;;;;;;;;;;0.20;93.60;;;;;;5053167;28;20225;-84
2022/03/04 00:16:20;;;;;;;;;;;0.10;93.90;;;;;;5039052;28;19924;-84
2022/03/04 00:19:06;;;;;;;;;;;0.10;94.00;;;;;;5034746;28;19916;-84
2022/03/04 00:21:35;;;;;;;;;;;0.10;94.30;;;;;;5038027;28;19916;-84
2022/03/04 00:24:01;;;;;;;;;;;0.00;94.60;;;;;;5046756;28;20452;-84
2022/03/04 00:26:27;;;;;;;;;;;0.00;95.10;;;;;;5038347;28;19920;-84
2022/03/04 00:28:56;;;;;;;;;;;0.00;96.10;;;;;;5042630;28;19943;-84
2022/03/04 00:31:22;;;;;;;;;;;0.00;96.00;;;;;;5024913;28;19921;-84
2022/03/04 00:33:47;;;;;;;;;;;0.00;96.00;;;;;;5040614;28;20248;-83
2022/03/04 00:36:13;;;;;;;;;;;-0.10;96.00;;;;;;5023353;28;20304;-84
2022/03/04 00:38:39;;;;;;;;;;;-0.10;96.10;;;;;;5033740;28;19967;-84
2022/03/04 00:41:04;;;;;;;;;;;-0.10;96.50;;;;;;5054097;28;20323;-83
2022/03/04 00:43:30;;;;;;;;;;;-0.10;96.50;;;;;;5051909;28;19912;-84
2022/03/04 00:45:55;;;;;;;;;;;-0.10;96.30;;;;;;5049426;28;19962;-83
2022/03/04 00:48:21;;;;;;;;;;;-0.10;96.10;;;;;;5054571;28;20363;-84
2022/03/04 00:50:46;;;;;;;;;;;-0.10;95.90;;;;;;5035062;28;20403;-84
2022/03/04 00:53:15;;;;;;;;;;;-0.10;95.90;;;;;;5051109;28;19920;-84
2022/03/04 00:55:40;;;;;;;;;;;-0.10;95.80;;;;;;5024496;28;19970;-84
2022/03/04 00:58:06;;;;;;;;;;;-0.10;95.80;;;;;;5052030;28;20370;-83
2022/03/04 01:00:33;;;;;;;;;;;-0.20;95.90;;;;;;5031690;28;20020;-83
2022/03/04 01:02:59;;;;;;;;;;;-0.20;96.00;;;;;;5045645;28;20306;-84
2022/03/04 01:05:24;;;;;;;;;;;-0.20;96.20;;;;;;5048658;28;19923;-84
2022/03/04 01:07:50;;;;;;;;;;;-0.20;96.30;;;;;;5023794;28;19920;-84
2022/03/04 01:10:16;;;;;;;;;;;-0.30;96.10;;;;;;5034964;28;19916;-84
2022/03/04 01:12:42;;;;;;;;;;;-0.30;96.30;;;;;;5033775;28;19928;-84
2022/03/04 01:15:07;;;;;;;;;;;-0.30;96.50;;;;;;5050822;28;19912;-84
2022/03/04 01:17:33;;;;;;;;;;;-0.40;96.80;;;;;;5047157;28;19913;-84
2022/03/04 01:19:59;;;;;;;;;;;-0.40;96.70;;;;;;5050852;28;19920;-84
2022/03/04 01:22:24;;;;;;;;;;;-0.40;96.80;;;;;;5031068;28;19920;-84
2022/03/04 01:24:53;;;;;;;;;;;-0.40;97.00;;;;;;5037651;28;20289;-84
2022/03/04 01:27:19;;;;;;;;;;;-0.40;96.90;;;;;;5049386;28;19987;-84
2022/03/04 01:29:45;;;;;;;;;;;-0.40;96.90;;;;;;5053864;28;19916;-84
2022/03/04 01:32:10;;;;;;;;;;;-0.40;96.80;;;;;;5050640;28;20257;-83
2022/03/04 01:34:36;;;;;;;;;;;-0.40;96.80;;;;;;5054028;28;19958;-84
2022/03/04 01:37:02;;;;;;;;;;;-0.40;96.80;;;;;;5033697;28;19921;-84
2022/03/04 01:39:27;;;;;;;;;;;-0.40;96.80;;;;;;5037014;28;19931;-84
2022/03/04 01:41:53;;;;;;;;;;;-0.40;96.90;;;;;;5050295;28;19971;-84
2022/03/04 01:44:19;;;;;;;;;;;-0.40;97.00;;;;;;5036518;28;20290;-84
2022/03/04 01:46:45;;;;;;;;;;;-0.40;97.20;;;;;;5033813;28;19967;-84
2022/03/04 01:49:11;;;;;;;;;;;-0.40;97.40;;;;;;5040348;28;19992;-84
2022/03/04 01:51:37;;;;;;;;;;;-0.40;97.40;;;;;;5053530;28;20016;-84
2022/03/04 01:54:03;;;;;;;;;;;-0.40;97.30;;;;;;5052126;28;19916;-84
2022/03/04 01:56:29;;;;;;;;;;;-0.40;97.40;;;;;;5052144;28;19952;-83
2022/03/04 01:58:54;;;;;;;;;;;-0.40;97.50;;;;;;5033659;28;20422;-84
2022/03/04 02:01:20;;;;;;;;;;;-0.40;97.80;;;;;;5034485;28;20268;-84
2022/03/04 02:03:46;;;;;;;;;;;-0.40;97.70;;;;;;5046398;28;19912;-84
2022/03/04 02:06:11;;;;;;;;;;;-0.40;98.10;;;;;;5050153;28;19920;-84
2022/03/04 02:08:37;;;;;;;;;;;-0.30;98.00;;;;;;5026818;28;20486;-84
2022/03/04 02:11:03;;;;;;;;;;;-0.30;97.50;;;;;;5049741;28;20294;-84
2022/03/04 02:13:28;;;;;;;;;;;-0.20;97.60;;;;;;5041244;28;20371;-84
2022/03/04 02:15:54;;;;;;;;;;;-0.20;98.00;;;;;;5049909;28;20326;-84
2022/03/04 02:18:19;;;;;;;;;;;-0.30;97.70;;;;;;5044462;28;20400;-84
2022/03/04 02:20:50;;;;;;;;;;;-0.30;97.80;;;;;;5036348;28;20348;-84
2022/03/04 02:23:15;;;;;;;;;;;-0.40;98.00;;;;;;5046350;28;20509;-84
2022/03/04 02:25:43;;;;;;;;;;;-0.40;97.90;;;;;;5032902;28;19943;-84
2022/03/04 02:28:09;;;;;;;;;;;-0.40;98.00;;;;;;5043996;28;19964;-84
2022/03/04 02:30:36;;;;;;;;;;;-0.40;98.70;;;;;;5052425;28;19963;-83
2022/03/04 02:33:03;;;;;;;;;;;-0.50;98.60;;;;;;5027157;28;20015;-84
2022/03/04 02:35:30;;;;;;;;;;;-0.50;98.60;;;;;;5036045;28;19920;-83
2022/03/04 02:37:56;;;;;;;;;;;-0.50;98.40;;;;;;5027630;28;19917;-83
2022/03/04 02:40:22;;;;;;;;;;;-0.50;98.20;;;;;;5052406;28;20371;-84
2022/03/04 02:42:47;;;;;;;;;;;-0.50;98.10;;;;;;5023022;28;19928;-84
2022/03/04 02:45:13;;;;;;;;;;;-0.50;98.10;;;;;;5036466;28;19916;-84
2022/03/04 02:47:39;;;;;;;;;;;-0.50;98.40;;;;;;5039769;28;19963;-84
2022/03/04 02:50:05;;;;;;;;;;;-0.60;98.50;;;;;;5030872;28;19921;-83
2022/03/04 02:52:30;;;;;;;;;;;-0.60;98.60;;;;;;5048474;28;19968;-83
2022/03/04 02:54:56;;;;;;;;;;;-0.60;98.90;;;;;;5048321;28;20434;-83
2022/03/04 02:57:25;;;;;;;;;;;-0.70;99.20;;;;;;5029549;28;19925;-84
2022/03/04 02:59:50;;;;;;;;;;;-0.70;99.40;;;;;;5048536;28;19924;-84
2022/03/04 03:02:16;;;;;;;;;;;-0.70;99.80;;;;;;5024331;28;20034;-84
2022/03/04 03:04:42;;;;;;;;;;;-0.80;99.90;;;;;;5033657;28;20430;-84
2022/03/04 03:07:08;;;;;;;;;;;-0.90;99.90;;;;;;5042698;28;19920;-84
2022/03/04 03:09:33;;;;;;;;;;;-0.90;99.90;;;;;;5028257;28;19917;-83
2022/03/04 03:11:59;;;;;;;;;;;-1.00;99.90;;;;;;5035090;28;19917;-84
2022/03/04 03:14:25;;;;;;;;;;;-1.00;99.90;;;;;;5056076;28;19913;-84
2022/03/04 03:16:50;;;;;;;;;;;-1.10;99.90;;;;;;5040975;28;19932;-84
2022/03/04 03:19:16;;;;;;;;;;;-1.10;99.90;;;;;;5040518;28;19959;-84
2022/03/04 03:21:41;;;;;;;;;;;-1.10;99.90;;;;;;5057378;28;20436;-84
2022/03/04 03:24:07;;;;;;;;;;;-1.20;99.90;;;;;;5028523;28;20298;-84
2022/03/04 03:26:33;;;;;;;;;;;-1.20;99.90;;;;;;5053088;28;20342;-84
2022/03/04 03:28:58;;;;;;;;;;;-1.20;99.90;;;;;;5044797;28;19917;-84
2022/03/04 03:31:24;;;;;;;;;;;-1.30;99.90;;;;;;5032178;28;19924;-84
2022/03/04 03:33:49;;;;;;;;;;;-1.30;99.90;;;;;;5032095;28;19936;-84
2022/03/04 03:36:15;;;;;;;;;;;-1.30;99.90;;;;;;5037151;28;19923;-84
2022/03/04 03:38:40;;;;;;;;;;;-1.30;99.90;;;;;;5044589;28;19913;-84
2022/03/04 03:41:06;;;;;;;;;;;-1.40;99.90;;;;;;5031826;28;19996;-84
2022/03/04 03:43:31;;;;;;;;;;;-1.40;99.90;;;;;;5056200;28;19921;-84
2022/03/04 03:46:00;;;;;;;;;;;-1.40;99.90;;;;;;5036373;28;20303;-84
2022/03/04 03:48:25;;;;;;;;;;;-1.50;99.90;;;;;;5029368;28;19917;-84
2022/03/04 03:50:51;;;;;;;;;;;-1.50;99.90;;;;;;5039349;28;19973;-84
2022/03/04 03:53:16;;;;;;;;;;;-1.50;99.90;;;;;;5026870;28;20288;-84
2022/03/04 03:55:42;;;;;;;;;;;-1.50;99.90;;;;;;5035757;28;19924;-84
2022/03/04 03:58:08;;;;;;;;;;;-1.50;99.90;;;;;;5048031;28;20204;-84
2022/03/04 04:00:34;;;;;;;;;;;-1.50;99.90;;;;;;5032803;28;19925;-84
2022/03/04 04:03:00;;;;;;;;;;;-1.60;99.90;;;;;;5032222;28;20372;-84
2022/03/04 04:05:25;;;;;;;;;;;-1.60;99.90;;;;;;5045313;28;19917;-83
2022/03/04 04:07:51;;;;;;;;;;;-1.60;99.90;;;;;;5045338;28;19921;-83
2022/03/04 04:10:16;;;;;;;;;;;-1.60;99.90;;;;;;5018407;28;19917;-83
2022/03/04 04:12:42;;;;;;;;;;;-1.70;99.90;;;;;;5022370;28;19923;-83
2022/03/04 04:15:08;;;;;;;;;;;-1.70;99.90;;;;;;5030263;28;20019;-84
2022/03/04 04:17:33;;;;;;;;;;;-1.80;99.90;;;;;;5012108;28;19928;-83
2022/03/04 04:19:59;;;;;;;;;;;-1.80;99.90;;;;;;5029729;28;19920;-84
2022/03/04 04:22:24;;;;;;;;;;;-1.80;99.90;;;;;;5035680;28;19917;-84
2022/03/04 04:24:50;;;;;;;;;;;-1.90;99.90;;;;;;5026949;28;19953;-84
2022/03/04 04:27:15;;;;;;;;;;;-1.90;99.90;;;;;;5030617;28;19920;-83
2022/03/04 04:29:41;;;;;;;;;;;-1.90;99.90;;;;;;5028189;28;20375;-84
2022/03/04 04:32:07;;;;;;;;;;;-1.90;99.90;;;;;;5032326;28;20335;-82
2022/03/04 04:34:33;;;;;;;;;;;-2.00;99.90;;;;;;5036072;28;19924;-81
2022/03/04 04:36:58;;;;;;;;;;;-2.00;99.90;;;;;;5040431;28;19943;-81
2022/03/04 04:39:27;;;;;;;;;;;-2.00;99.90;;;;;;5030825;28;19924;-82
2022/03/04 04:41:52;;;;;;;;;;;-2.10;99.90;;;;;;5031258;28;19928;-81
2022/03/04 04:44:18;;;;;;;;;;;-2.10;99.90;;;;;;5033915;28;20895;-81
2022/03/04 04:46:43;;;;;;;;;;;-2.10;99.90;;;;;;5034134;28;19917;-82
2022/03/04 04:49:09;;;;;;;;;;;-2.10;99.90;;;;;;5036836;28;19943;-82
2022/03/04 04:51:35;;;;;;;;;;;-2.10;99.90;;;;;;5040037;28;19917;-82
2022/03/04 04:54:01;;;;;;;;;;;-2.10;99.90;;;;;;5053225;28;19927;-82
2022/03/04 04:56:26;;;;;;;;;;;-2.10;99.90;;;;;;5035577;28;19928;-81
2022/03/04 04:58:52;;;;;;;;;;;-2.10;99.90;;;;;;5038524;28;19963;-81
2022/03/04 05:01:18;;;;;;;;;;;-2.10;99.90;;;;;;5052079;28;19913;-81
2022/03/04 05:03:44;;;;;;;;;;;-2.10;99.90;;;;;;5047318;28;19913;-82
2022/03/04 05:06:09;;;;;;;;;;;-2.10;99.90;;;;;;5035327;28;19921;-82
2022/03/04 05:08:35;;;;;;;;;;;-2.10;99.90;;;;;;5050774;28;19916;-81
2022/03/04 05:11:01;;;;;;;;;;;-2.10;99.90;;;;;;5044341;28;19917;-81
2022/03/04 05:13:26;;;;;;;;;;;-2.10;99.90;;;;;;5054951;28;19916;-81
2022/03/04 05:15:52;;;;;;;;;;;-2.10;99.90;;;;;;5051718;28;19916;-81
2022/03/04 05:18:17;;;;;;;;;;;-2.10;99.90;;;;;;5055236;28;19919;-81
2022/03/04 05:20:43;;;;;;;;;;;-2.10;99.90;;;;;;5051106;28;20356;-81
2022/03/04 05:23:09;;;;;;;;;;;-2.10;99.90;;;;;;5038336;28;19920;-81
2022/03/04 05:25:34;;;;;;;;;;;-2.10;99.90;;;;;;5034718;28;19975;-82
2022/03/04 05:28:00;;;;;;;;;;;-2.10;99.90;;;;;;5036982;28;19917;-81
2022/03/04 05:30:26;;;;;;;;;;;-2.20;99.90;;;;;;5050375;28;19924;-81
2022/03/04 05:32:51;;;;;;;;;;;-2.10;99.90;;;;;;5037001;28;20375;-81
2022/03/04 05:35:17;;;;;;;;;;;-2.20;99.90;;;;;;5052894;28;19944;-81
2022/03/04 05:37:42;;;;;;;;;;;-2.10;99.90;;;;;;5035402;28;20107;-82
2022/03/04 05:40:08;;;;;;;;;;;-2.20;99.90;;;;;;5051522;28;20011;-81
2022/03/04 05:42:35;;;;;;;;;;;-2.20;99.90;;;;;;5055160;28;19913;-82
2022/03/04 05:45:00;;;;;;;;;;;-2.20;99.90;;;;;;5037853;28;19917;-81
2022/03/04 05:47:26;;;;;;;;;;;-2.20;99.90;;;;;;5051733;28;19923;-82
2022/03/04 05:49:51;;;;;;;;;;;-2.20;99.90;;;;;;5034603;28;19927;-81
2022/03/04 05:52:17;;;;;;;;;;;-2.20;99.90;;;;;;5051913;28;19920;-82
2022/03/04 05:54:43;;;;;;;;;;;-2.10;99.90;;;;;;5050643;28;19967;-81
2022/03/04 05:57:08;;;;;;;;;;;-2.10;99.90;;;;;;5051059;28;19979;-81
2022/03/04 05:59:34;;;;;;;;;;;-2.10;99.90;;;;;;5034224;28;19921;-81
2022/03/04 06:01:59;;;;;;;;;;;-2.10;99.90;;;;;;5034282;28;19937;-81
2022/03/04 06:04:25;;;;;;;;;;;-2.10;99.90;;;;;;5036454;28;19924;-81
2022/03/04 06:06:50;;;;;;;;;;;-2.10;99.90;;;;;;5050899;28;19916;-81
2022/03/04 06:09:16;;;;;;;;;;;-2.10;99.90;;;;;;5052647;28;19966;-81
2022/03/04 06:11:43;;;;;;;;;;;-2.10;99.90;;;;;;5037152;28;19921;-82
2022/03/04 06:14:09;;;;;;;;;;;-2.10;99.90;;;;;;5050454;28;19917;-82
2022/03/04 06:16:34;;;;;;;;;;;-2.20;99.90;;;;;;5036518;28;19977;-81
2022/03/04 06:19:00;;;;;;;;;;;-2.20;99.90;;;;;;5036761;28;19923;-81
2022/03/04 06:21:25;;;;;;;;;;;-2.20;99.90;;;;;;5036207;28;20374;-81
2022/03/04 06:23:51;;;;;;;;;;;-2.20;99.90;;;;;;5036446;28;20406;-82
2022/03/04 06:26:16;;;;;;;;;;;-2.20;99.90;;;;;;5050297;28;20003;-81
2022/03/04 06:28:43;;;;;;;;;;;-2.20;99.90;;;;;;5053499;28;19948;-81
2022/03/04 06:31:08;;;;;;;;;;;-2.20;99.90;;;;;;5033852;28;19917;-81
2022/03/04 06:33:35;;;;;;;;;;;-2.10;99.90;;;;;;5034280;28;19931;-81
2022/03/04 06:36:03;;;;;;;;;;;-2.10;99.90;;;;;;5052713;28;19912;-81
2022/03/04 06:38:29;;;;;;;;;;;-2.10;99.90;;;;;;5050893;28;19919;-82
2022/03/04 06:40:55;;;;;;;;;;;-2.00;99.90;;;;;;5049943;28;19917;-82
2022/03/04 06:43:20;;;;;;;;;;;-2.00;99.90;;;;;;5052562;28;19931;-82
2022/03/04 06:45:47;;;;;;;;;;;-1.90;99.90;;;;;;5033459;28;19960;-81
2022/03/04 06:48:14;;;;;;;;;;;-1.90;99.90;;;;;;5049808;28;19920;-81
2022/03/04 06:50:39;;;;;;;;;;;-1.80;99.90;;;;;;5050042;28;19947;-81
2022/03/04 06:53:05;;;;;;;;;;;-1.80;99.90;;;;;;5035215;28;19917;-81
2022/03/04 06:55:31;;;;;;;;;;;-1.80;99.90;;;;;;5053060;28;20434;-82
2022/03/04 06:57:56;;;;;;;;;;;-1.70;99.90;;;;;;5051779;28;19916;-81
2022/03/04 07:00:22;;;;;;;;;;;-1.70;99.90;;;;;;5036499;28;19924;-82
2022/03/04 07:02:48;;;;;;;;;;;-1.60;99.90;;;;;;5036097;28;19953;-81
2022/03/04 07:05:13;;;;;;;;;;;-1.50;99.90;;;;;;5024919;28;20019;-81
2022/03/04 07:07:39;;;;;;;;;;;-1.50;99.90;;;;;;5032723;28;19963;-81
2022/03/04 07:10:05;;;;;;;;;;;-1.40;99.90;;;;;;5036254;28;20386;-82
2022/03/04 07:12:30;;;;;;;;;;;-1.40;99.90;;;;;;5036278;28;19956;-81
2022/03/04 07:14:56;;;;;;;;;;;-1.30;99.90;;;;;;5052260;28;19920;-82
2022/03/04 07:17:22;;;;;;;;;;;-1.20;99.90;;;;;;5032747;28;19921;-82
2022/03/04 07:19:47;;;;;;;;;;;-1.20;99.90;;;;;;5052963;28;20040;-82
2022/03/04 07:22:13;;;;;;;;;;;-1.10;99.90;;;;;;5049197;28;20401;-82
2022/03/04 07:24:39;;;;;;;;;;;-1.00;99.90;;;;;;5052834;28;20411;-82
2022/03/04 07:27:04;;;;;;;;;;;-0.90;99.90;;;;;;5049280;28;19935;-81
2022/03/04 07:29:30;;;;;;;;;;;-0.90;99.90;;;;;;5032487;28;20003;-82
2022/03/04 07:31:56;;;;;;;;;;;-0.80;99.90;;;;;;5035793;28;19924;-82
2022/03/04 07:34:23;;;;;;;;;;;-0.70;99.90;;;;;;5034433;28;19925;-82
2022/03/04 07:36:49;;;;;;;;;;;-0.60;99.90;;;;;;5052642;28;19923;-82
2022/03/04 07:39:15;;;;;;;;;;;-0.60;99.90;;;;;;5049886;28;19974;-82
2022/03/04 07:41:41;;;;;;;;;;;-0.50;99.90;;;;;;5052497;28;19913;-82
2022/03/04 07:44:07;;;;;;;;;;;-0.50;99.90;;;;;;5049514;28;19923;-83
2022/03/04 07:46:33;;;;;;;;;;;-0.40;99.90;;;;;;5032418;28;20023;-81
2022/03/04 07:48:58;;;;;;;;;;;-0.30;99.90;;;;;;5048651;28;20416;-81
2022/03/04 07:51:24;;;;;;;;;;;-0.20;99.90;;;;;;5034810;28;20397;-81
2022/03/04 07:53:49;;;;;;;;;;;-0.10;99.90;;;;;;5042822;22;19901;-81
2022/03/04 07:56:15;;;;;;;;;;;-0.10;99.90;;;;;;5060397;28;19916;-81
2022/03/04 07:58:40;;;;;;;;;;;0.00;99.90;;;;;;5057278;28;19954;-81
2022/03/04 08:01:07;;;;;;;;;;;0.10;99.90;;;;;;5024960;28;19931;-82
2022/03/04 08:03:32;;;;;;;;;;;0.20;99.90;;;;;;5042388;28;19909;-80
2022/03/04 08:05:58;;;;;;;;;;;0.20;99.90;;;;;;5029905;28;19963;-82
2022/03/04 08:08:23;;;;;;;;;;;0.30;99.90;;;;;;5057159;28;19912;-81
2022/03/04 08:10:49;;;;;;;;;;;0.40;99.90;;;;;;5039286;28;19952;-81
2022/03/04 08:13:14;;;;;;;;;;;0.40;99.90;;;;;;5044579;28;19956;-81
2022/03/04 08:15:41;;;;;;;;;;;0.50;99.90;;;;;;5055092;28;19917;-81
2022/03/04 08:18:06;;;;;;;;;;;0.60;99.90;;;;;;5041302;28;20482;-81
2022/03/04 08:20:33;;;;;;;;;;;0.70;99.90;;;;;;5039799;28;19921;-82
2022/03/04 08:22:59;;;;;;;;;;;0.70;99.90;;;;;;5041139;28;20061;-82
2022/03/04 08:25:25;;;;;;;;;;;0.80;99.90;;;;;;5057694;28;20003;-81
2022/03/04 08:27:51;;;;;;;;;;;0.90;99.90;;;;;;5037775;28;20000;-81
2022/03/04 08:30:16;;;;;;;;;;;1.00;99.90;;;;;;5054321;28;19909;-82
2022/03/04 08:32:42;;;;;;;;;;;1.10;99.90;;;;;;5036943;28;19921;-82
2022/03/04 08:35:08;;;;;;;;;;;1.20;99.70;;;;;;5039014;28;19939;-80
2022/03/04 08:37:34;;;;;;;;;;;1.40;99.40;;;;;;5041459;28;19916;-83
2022/03/04 08:39:59;;;;;;;;;;;1.40;98.40;;;;;;5055415;28;20299;-81
2022/03/04 08:42:26;;;;;;;;;;;1.60;98.50;;;;;;5041630;28;19940;-81
2022/03/04 08:44:53;;;;;;;;;;;1.70;97.50;;;;;;5059222;28;19912;-82
2022/03/04 08:47:19;;;;;;;;;;;1.80;96.90;;;;;;5042108;28;19913;-82
2022/03/04 08:49:45;;;;;;;;;;;1.90;97.00;;;;;;5058400;28;19920;-82
2022/03/04 08:52:10;;;;;;;;;;;2.00;95.70;;;;;;5057515;28;19908;-83
2022/03/04 08:54:36;;;;;;;;;;;2.10;96.30;;;;;;5058893;28;19921;-81
2022/03/04 08:57:01;;;;;;;;;;;2.10;96.40;;;;;;5046082;28;19944;-81
2022/03/04 08:59:27;;;;;;;;;;;2.20;96.90;;;;;;5033218;28;19924;-82
2022/03/04 09:01:52;;;;;;;;;;;2.40;95.80;;;;;;5046354;28;20424;-82
2022/03/04 09:04:18;;;;;;;;;;;2.40;94.60;;;;;;5044418;28;20054;-81
2022/03/04 09:06:44;;;;;;;;;;;2.50;94.50;;;;;;5042254;28;20458;-82
2022/03/04 09:09:10;;;;;;;;;;;2.60;92.10;;;;;;5045136;28;19938;-81
2022/03/04 09:11:35;;;;;;;;;;;2.60;92.40;;;;;;5046229;28;20124;-82
2022/03/04 09:14:04;;;;;;;;;;;2.70;91.90;;;;;;5061721;28;19913;-82
2022/03/04 09:16:29;;;;;;;;;;;2.70;92.20;;;;;;5062370;28;19935;-81
2022/03/04 09:18:55;;;;;;;;;;;2.80;93.30;;;;;;5041121;28;20318;-82
2022/03/04 09:21:20;;;;;;;;;;;2.90;90.60;;;;;;5048247;28;19926;-82
2022/03/04 09:23:46;;;;;;;;;;;2.90;89.90;;;;;;5045477;28;19913;-82
2022/03/04 09:26:12;;;;;;;;;;;3.00;91.20;;;;;;5040690;28;19938;-81
2022/03/04 09:28:37;;;;;;;;;;;3.10;90.20;;;;;;5034483;28;19948;-82
2022/03/04 09:31:03;;;;;;;;;;;3.10;88.30;;;;;;5039605;28;20240;-81
2022/03/04 09:33:28;;;;;;;;;;;3.10;81.40;;;;;;5038888;28;19913;-82
2022/03/04 09:35:54;;;;;;;;;;;3.20;84.80;;;;;;5024402;28;19919;-82
2022/03/04 09:38:20;;;;;;;;;;;3.30;90.00;;;;;;5043580;28;19913;-81
2022/03/04 09:40:47;;;;;;;;;;;3.30;85.50;;;;;;5045548;28;19916;-82
2022/03/04 09:43:13;;;;;;;;;;;3.40;81.90;;;;;;5039262;28;20038;-81
2022/03/04 09:45:39;;;;;;;;;;;3.40;83.20;;;;;;5044294;28;19923;-81
2022/03/04 09:48:05;;;;;;;;;;;3.50;82.70;;;;;;5047974;28;19921;-82
2022/03/04 09:50:32;;;;;;;;;;;3.50;80.60;;;;;;5042787;28;19920;-81
2022/03/04 09:52:58;;;;;;;;;;;3.60;80.30;;;;;;5058467;28;19935;-81
2022/03/04 09:55:23;;;;;;;;;;;3.60;80.50;;;;;;5039948;28;19924;-81
2022/03/04 09:57:49;;;;;;;;;;;3.60;79.80;;;;;;5041999;28;19919;-82
2022/03/04 10:00:14;;;;;;;;;;;3.70;80.00;;;;;;5043124;28;19986;-82
2022/03/04 10:02:41;;;;;;;;;;;3.80;77.20;;;;;;5059335;28;20118;-81
2022/03/04 10:05:08;;;;;;;;;;;3.90;79.00;;;;;;5062372;28;20054;-81
2022/03/04 10:07:41;;;;;;;;;;;3.90;76.10;;;;;;5050234;28;19913;-81
2022/03/04 10:10:10;;;;;;;;;;;4.00;78.80;;;;;;5060215;28;20287;-81
2022/03/04 10:12:45;;;;;;;;;;;4.00;77.90;;;;;;5042651;28;19924;-81
2022/03/04 10:15:10;;;;;;;;;;;4.10;75.10;;;;;;5050313;28;20512;-82
2022/03/04 10:17:36;;;;;;;;;;;4.10;73.50;;;;;;5040034;28;19917;-81
2022/03/04 10:20:14;;;;;;;;;;;4.20;70.90;;;;;;5056998;28;19921;-82
2022/03/04 10:22:42;;;;;;;;;;;4.30;74.20;;;;;;5061209;28;19908;-82
2022/03/04 10:25:22;;;;;;;;;;;4.30;70.30;;;;;;5055029;28;19913;-81
2022/03/04 10:27:48;;;;;;;;;;;4.40;73.10;;;;;;5055160;28;19913;-81
2022/03/04 10:30:15;;;;;;;;;;;4.50;75.70;;;;;;5058552;28;19944;-82
2022/03/04 10:32:41;;;;;;;;;;;4.60;72.20;;;;;;5061151;28;19939;-82
2022/03/04 10:35:08;;;;;;;;;;;4.70;74.10;;;;;;5042082;28;20263;-83
2022/03/04 10:37:36;;;;;;;;;;;4.70;70.80;;;;;;5052841;28;19909;-83
2022/03/04 10:40:02;;;;;;;;;;;4.80;69.30;;;;;;5059453;28;20326;-82
2022/03/04 10:42:37;;;;;;;;;;;4.90;68.40;;;;;;5053041;28;19908;-82
2022/03/04 10:45:07;;;;;;;;;;;5.00;67.90;;;;;;5054492;28;19916;-81
2022/03/04 10:47:40;;;;;;;;;;;5.00;66.30;;;;;;5059598;28;19999;-81
2022/03/04 10:50:05;;;;;;;;;;;5.10;67.10;;;;;;5039804;28;19970;-81
2022/03/04 10:52:31;;;;;;;;;;;5.20;66.90;;;;;;5036328;28;19917;-82
2022/03/04 10:54:56;;;;;;;;;;;5.30;66.10;;;;;;5040205;28;19948;-82
2022/03/04 10:57:22;;;;;;;;;;;5.40;70.40;;;;;;5025455;28;19966;-81
2022/03/04 10:59:57;;;;;;;;;;;5.40;69.10;;;;;;5031386;28;19984;-82
2022/03/04 11:02:43;;;;;;;;;;;5.50;68.50;;;;;;5037262;28;19916;-81
2022/03/04 11:05:09;;;;;;;;;;;5.60;65.70;;;;;;5041863;28;19913;-82
2022/03/04 11:07:35;;;;;;;;;;;5.60;64.80;;;;;;5055051;28;20402;-81
2022/03/04 11:10:01;;;;;;;;;;;5.80;65.70;;;;;;5032017;28;19993;-82
2022/03/04 11:12:28;;;;;;;;;;;5.80;63.40;;;;;;5046313;28;19908;-82
2022/03/04 11:14:56;;;;;;;;;;;5.90;62.10;;;;;;5037289;28;20161;-82
2022/03/04 11:17:22;;;;;;;;;;;6.00;60.70;;;;;;5056022;28;19954;-82
2022/03/04 11:19:48;;;;;;;;;;;6.00;60.80;;;;;;5038505;28;19929;-82
2022/03/04 11:22:14;;;;;;;;;;;6.10;59.60;;;;;;5041651;28;19947;-81
2022/03/04 11:24:40;;;;;;;;;;;6.20;59.30;;;;;;5034921;28;20269;-83
2022/03/04 11:27:09;;;;;;;;;;;6.20;59.10;;;;;;5035377;28;20367;-82
2022/03/04 11:29:35;;;;;;;;;;;6.30;57.90;;;;;;5058867;28;19959;-82
2022/03/04 11:32:02;;;;;;;;;;;6.30;57.30;;;;;;5043949;28;19917;-82
2022/03/04 11:34:53;;;;;;;;;;;6.40;58.10;;;;;;5062101;28;19965;-82
2022/03/04 11:37:20;;;;;;;;;;;6.40;57.10;;;;;;5057265;28;20532;-82
2022/03/04 11:40:05;;;;;;;;;;;6.40;56.20;;;;;;5045899;28;20455;-82
2022/03/04 11:42:37;;;;;;;;;;;6.50;57.60;;;;;;5061589;28;19909;-82
2022/03/04 11:45:06;;;;;;;;;;;6.60;57.10;;;;;;5045735;28;19970;-82
2022/03/04 11:47:37;;;;;;;;;;;6.60;56.80;;;;;;5059067;28;19913;-82
2022/03/04 11:50:21;;;;;;;;;;;6.70;55.00;;;;;;5063662;28;20377;-82
2022/03/04 11:52:47;;;;;;;;;;;6.70;55.40;;;;;;5060772;28;19913;-82
2022/03/04 11:55:21;;;;;;;;;;;6.80;55.10;;;;;;5044832;28;20014;-83
2022/03/04 11:57:47;;;;;;;;;;;6.80;55.80;;;;;;5059301;28;20393;-82
2022/03/04 12:00:13;;;;;;;;;;;6.90;55.30;;;;;;5046407;28;19925;-82
2022/03/04 12:02:43;;;;;;;;;;;6.90;56.80;;;;;;5062558;28;20273;-82
2022/03/04 12:05:12;;;;;;;;;;;7.00;57.00;;;;;;5057936;28;19913;-82
2022/03/04 12:07:37;;;;;;;;;;;7.00;56.30;;;;;;5053910;28;19916;-82
2022/03/04 12:10:07;;;;;;;;;;;7.10;54.90;;;;;;5060131;28;19919;-82
2022/03/04 12:12:33;;;;;;;;;;;7.20;58.00;;;;;;5064200;28;19952;-83
2022/03/04 12:15:17;;;;;;;;;;;7.20;56.40;;;;;;5045990;28;19923;-82
2022/03/04 12:17:52;;;;;;;;;;;7.30;56.10;;;;;;5064112;28;19913;-82
2022/03/04 12:20:36;;;;;;;;;;;7.20;54.60;;;;;;5064276;28;20011;-83
2022/03/04 12:23:07;;;;;;;;;;;7.30;55.30;;;;;;5065017;28;19995;-82
2022/03/04 12:26:02;;;;;;;;;;;7.30;56.80;;;;;;5061417;28;19963;-82
2022/03/04 12:28:33;;;;;;;;;;;7.30;55.40;;;;;;5046055;28;19928;-81
2022/03/04 12:31:02;;;;;;;;;;;7.30;55.50;;;;;;5060468;28;19988;-81
2022/03/04 12:33:28;;;;;;;;;;;7.30;54.30;;;;;;5061132;28;19920;-82
2022/03/04 12:35:57;;;;;;;;;;;7.40;55.20;;;;;;5061600;28;19931;-82
2022/03/04 12:38:23;;;;;;;;;;;7.30;55.20;;;;;;5044463;28;19916;-82
2022/03/04 12:40:58;;;;;;;;;;;7.40;54.70;;;;;;5056223;28;19971;-82
2022/03/04 12:43:25;;;;;;;;;;;7.40;54.60;;;;;;5058228;28;19908;-82
2022/03/04 12:45:51;;;;;;;;;;;7.50;53.60;;;;;;5058149;28;19916;-82
2022/03/04 12:48:21;;;;;;;;;;;7.40;54.60;;;;;;5057274;28;19908;-82
2022/03/04 12:50:46;;;;;;;;;;;7.50;54.50;;;;;;5058994;28;20330;-82
2022/03/04 12:53:27;;;;;;;;;;;7.50;54.60;;;;;;5057803;28;19908;-82
2022/03/04 12:55:55;;;;;;;;;;;7.40;54.10;;;;;;5053723;28;19917;-82
2022/03/04 12:58:34;;;;;;;;;;;7.40;55.30;;;;;;5037424;28;20387;-83
2022/03/04 13:01:02;;;;;;;;;;;7.40;55.80;;;;;;5053364;28;19968;-82
2022/03/04 13:03:27;;;;;;;;;;;7.40;56.90;;;;;;5054144;28;19962;-82
2022/03/04 13:05:53;;;;;;;;;;;7.50;55.20;;;;;;5036984;28;19917;-83
2022/03/04 13:08:18;;;;;;;;;;;7.50;53.90;;;;;;5053953;28;19944;-83
2022/03/04 13:10:44;;;;;;;;;;;7.60;53.10;;;;;;5054040;28;19917;-82
2022/03/04 13:13:09;;;;;;;;;;;7.50;54.60;;;;;;5037568;28;19958;-82
2022/03/04 13:15:35;;;;;;;;;;;7.60;51.60;;;;;;5037310;28;19917;-83
2022/03/04 13:18:00;;;;;;;;;;;7.60;51.20;;;;;;5054398;28;19915;-83
2022/03/04 13:20:26;;;;;;;;;;;7.70;53.50;;;;;;5054095;28;19917;-83
2022/03/04 13:23:05;;;;;;;;;;;7.60;54.20;;;;;;5054041;28;19955;-83
2022/03/04 13:25:30;;;;;;;;;;;7.60;52.10;;;;;;5055902;28;20391;-83
2022/03/04 13:27:56;;;;;;;;;;;7.50;54.00;;;;;;5054114;28;19913;-83
2022/03/04 13:30:22;;;;;;;;;;;7.50;53.90;;;;;;5037729;28;19913;-83
2022/03/04 13:32:54;;;;;;;;;;;7.50;53.70;;;;;;5037369;28;20355;-83
2022/03/04 13:35:20;;;;;;;;;;;7.50;53.80;;;;;;5054105;28;20597;-83
2022/03/04 13:37:46;;;;;;;;;;;7.40;53.40;;;;;;5054198;28;19909;-83
2022/03/04 13:40:22;;;;;;;;;;;7.40;50.90;;;;;;5054378;28;19980;-83
2022/03/04 13:42:52;;;;;;;;;;;7.30;53.00;;;;;;5054184;28;19909;-83
2022/03/04 13:45:27;;;;;;;;;;;7.30;53.60;;;;;;5054385;28;19948;-83
2022/03/04 13:47:57;;;;;;;;;;;7.30;53.10;;;;;;5054831;28;20350;-83
2022/03/04 13:50:31;;;;;;;;;;;7.30;54.50;;;;;;5038070;28;19928;-83
2022/03/04 13:52:59;;;;;;;;;;;7.30;54.00;;;;;;5054631;28;20302;-83
2022/03/04 13:55:33;;;;;;;;;;;7.30;55.80;;;;;;5085637;22;19925;-87
2022/03/04 13:58:06;;;;;;;;;;;7.30;54.80;;;;;;5070205;28;19908;-87
2022/03/04 14:00:33;;;;;;;;;;;7.30;53.70;;;;;;5072477;28;19923;-86
2022/03/04 14:03:03;;;;;;;;;;;7.20;52.50;;;;;;5069163;28;19913;-86
2022/03/04 14:05:30;;;;;;;;;;;7.20;54.50;;;;;;5071258;28;19916;-86
2022/03/04 14:08:06;;;;;;;;;;;7.20;54.70;;;;;;5053737;28;19923;-87
2022/03/04 14:10:32;;;;;;;;;;;7.20;54.80;;;;;;5054304;28;19912;-86
2022/03/04 14:13:00;;;;;;;;;;;7.20;53.80;;;;;;5070619;28;19915;-87
2022/03/04 14:15:26;;;;;;;;;;;7.20;52.90;;;;;;5070760;28;19920;-87
2022/03/04 14:18:02;;;;;;;;;;;7.20;53.60;;;;;;5070113;28;19908;-86
2022/03/04 14:20:29;;;;;;;;;;;7.20;52.90;;;;;;5070756;28;20311;-87
2022/03/04 14:22:54;;;;;;;;;;;7.30;54.40;;;;;;5070483;28;19915;-86